sensor_id;sensor_type;location;lat;lon;timestamp;P1;durP1;ratioP1;P2;durP2;ratioP2
47053;SDS011;32811;52.382;5.270;2023-05-19T00:00:33;6.35;;;1.27;;
47053;SDS011;32811;52.382;5.270;2023-05-19T00:03:02;6.32;;;1.83;;
47053;SDS011;32811;52.382;5.270;2023-05-19T00:05:30;6.38;;;1.50;;
47053;SDS011;32811;52.382;5.270;2023-05-19T00:07:57;6.22;;;1.55;;
47053;SDS011;32811;52.382;5.270;2023-05-19T00:10:26;4.03;;;2.08;;
47053;SDS011;32811;52.382;5.270;2023-05-19T00:12:57;3.67;;;1.77;;
47053;SDS011;32811;52.382;5.270;2023-05-19T00:15:24;5.75;;;1.65;;
47053;SDS011;32811;52.382;5.270;2023-05-19T00:17:51;6.85;;;1.85;;
47053;SDS011;32811;52.382;5.270;2023-05-19T00:20:17;5.57;;;1.73;;
47053;SDS011;32811;52.382;5.270;2023-05-19T00:22:44;6.65;;;2.38;;
47053;SDS011;32811;52.382;5.270;2023-05-19T00:25:11;7.45;;;1.92;;
47053;SDS011;32811;52.382;5.270;2023-05-19T00:27:37;7.15;;;2.47;;
47053;SDS011;32811;52.382;5.270;2023-05-19T00:30:04;5.95;;;2.05;;
47053;SDS011;32811;52.382;5.270;2023-05-19T00:32:31;6.00;;;1.55;;
47053;SDS011;32811;52.382;5.270;2023-05-19T00:34:58;9.05;;;2.15;;
47053;SDS011;32811;52.382;5.270;2023-05-19T00:37:24;9.18;;;3.85;;
47053;SDS011;32811;52.382;5.270;2023-05-19T00:39:51;7.93;;;2.22;;
47053;SDS011;32811;52.382;5.270;2023-05-19T00:42:18;6.05;;;1.70;;
47053;SDS011;32811;52.382;5.270;2023-05-19T00:44:46;9.48;;;1.65;;
47053;SDS011;32811;52.382;5.270;2023-05-19T00:47:13;7.68;;;2.13;;
47053;SDS011;32811;52.382;5.270;2023-05-19T00:49:39;7.50;;;2.08;;
47053;SDS011;32811;52.382;5.270;2023-05-19T00:52:06;7.38;;;1.83;;
47053;SDS011;32811;52.382;5.270;2023-05-19T00:54:33;6.90;;;2.03;;
47053;SDS011;32811;52.382;5.270;2023-05-19T00:57:00;6.38;;;1.50;;
47053;SDS011;32811;52.382;5.270;2023-05-19T00:59:26;4.97;;;1.63;;
47053;SDS011;32811;52.382;5.270;2023-05-19T01:01:53;10.93;;;2.85;;
47053;SDS011;32811;52.382;5.270;2023-05-19T01:04:20;6.38;;;2.25;;
47053;SDS011;32811;52.382;5.270;2023-05-19T01:06:47;7.30;;;2.42;;
47053;SDS011;32811;52.382;5.270;2023-05-19T01:09:15;5.25;;;1.67;;
47053;SDS011;32811;52.382;5.270;2023-05-19T01:11:43;8.57;;;1.83;;
47053;SDS011;32811;52.382;5.270;2023-05-19T01:14:09;6.20;;;2.85;;
47053;SDS011;32811;52.382;5.270;2023-05-19T01:16:39;6.53;;;1.80;;
47053;SDS011;32811;52.382;5.270;2023-05-19T01:22:05;8.05;;;2.22;;
47053;SDS011;32811;52.382;5.270;2023-05-19T01:30:51;7.35;;;2.05;;
47053;SDS011;32811;52.382;5.270;2023-05-19T01:33:46;6.93;;;2.15;;
47053;SDS011;32811;52.382;5.270;2023-05-19T01:40:20;9.57;;;3.83;;
47053;SDS011;32811;52.382;5.270;2023-05-19T01:43:50;6.82;;;2.83;;
47053;SDS011;32811;52.382;5.270;2023-05-19T01:57:08;6.88;;;2.03;;
47053;SDS011;32811;52.382;5.270;2023-05-19T02:09:52;5.85;;;2.33;;
47053;SDS011;32811;52.382;5.270;2023-05-19T02:15:44;10.00;;;2.55;;
47053;SDS011;32811;52.382;5.270;2023-05-19T02:18:26;7.07;;;3.90;;
47053;SDS011;32811;52.382;5.270;2023-05-19T02:20:58;4.95;;;2.15;;
47053;SDS011;32811;52.382;5.270;2023-05-19T02:23:41;6.78;;;2.38;;
47053;SDS011;32811;52.382;5.270;2023-05-19T02:26:40;12.27;;;2.42;;
47053;SDS011;32811;52.382;5.270;2023-05-19T02:29:30;6.70;;;2.70;;
47053;SDS011;32811;52.382;5.270;2023-05-19T02:32:12;8.40;;;2.08;;
47053;SDS011;32811;52.382;5.270;2023-05-19T02:34:53;7.68;;;3.10;;
47053;SDS011;32811;52.382;5.270;2023-05-19T02:37:25;6.18;;;2.88;;
47053;SDS011;32811;52.382;5.270;2023-05-19T02:39:56;7.78;;;2.33;;
47053;SDS011;32811;52.382;5.270;2023-05-19T02:42:29;7.93;;;2.53;;
47053;SDS011;32811;52.382;5.270;2023-05-19T02:45:00;8.40;;;3.80;;
47053;SDS011;32811;52.382;5.270;2023-05-19T02:47:38;6.70;;;2.60;;
47053;SDS011;32811;52.382;5.270;2023-05-19T02:50:18;7.57;;;2.75;;
47053;SDS011;32811;52.382;5.270;2023-05-19T02:53:02;5.53;;;2.33;;
47053;SDS011;32811;52.382;5.270;2023-05-19T02:55:45;5.93;;;2.92;;
47053;SDS011;32811;52.382;5.270;2023-05-19T02:58:30;5.70;;;2.45;;
47053;SDS011;32811;52.382;5.270;2023-05-19T03:01:12;9.88;;;2.83;;
47053;SDS011;32811;52.382;5.270;2023-05-19T03:03:42;6.40;;;1.92;;
47053;SDS011;32811;52.382;5.270;2023-05-19T03:06:20;12.50;;;3.95;;
47053;SDS011;32811;52.382;5.270;2023-05-19T03:09:03;7.50;;;3.10;;
47053;SDS011;32811;52.382;5.270;2023-05-19T03:11:41;6.57;;;2.67;;
47053;SDS011;32811;52.382;5.270;2023-05-19T03:18:10;6.68;;;2.75;;
47053;SDS011;32811;52.382;5.270;2023-05-19T03:21:21;10.43;;;2.65;;
47053;SDS011;32811;52.382;5.270;2023-05-19T03:24:04;11.50;;;3.05;;
47053;SDS011;32811;52.382;5.270;2023-05-19T03:27:10;7.25;;;2.47;;
47053;SDS011;32811;52.382;5.270;2023-05-19T03:30:22;11.55;;;3.15;;
47053;SDS011;32811;52.382;5.270;2023-05-19T03:36:20;10.98;;;4.30;;
47053;SDS011;32811;52.382;5.270;2023-05-19T03:39:06;10.63;;;3.15;;
47053;SDS011;32811;52.382;5.270;2023-05-19T03:41:52;8.15;;;3.33;;
47053;SDS011;32811;52.382;5.270;2023-05-19T03:44:43;10.88;;;3.03;;
47053;SDS011;32811;52.382;5.270;2023-05-19T03:47:31;9.13;;;3.60;;
47053;SDS011;32811;52.382;5.270;2023-05-19T03:50:44;7.97;;;4.18;;
47053;SDS011;32811;52.382;5.270;2023-05-19T03:54:03;9.02;;;3.10;;
47053;SDS011;32811;52.382;5.270;2023-05-19T04:04:32;8.77;;;2.90;;
47053;SDS011;32811;52.382;5.270;2023-05-19T04:12:03;8.50;;;2.88;;
47053;SDS011;32811;52.382;5.270;2023-05-19T04:32:09;24.00;;;6.07;;
47053;SDS011;32811;52.382;5.270;2023-05-19T04:35:25;12.90;;;4.07;;
47053;SDS011;32811;52.382;5.270;2023-05-19T04:38:46;12.40;;;4.20;;
47053;SDS011;32811;52.382;5.270;2023-05-19T04:41:46;6.78;;;3.28;;
47053;SDS011;32811;52.382;5.270;2023-05-19T04:44:51;7.22;;;3.88;;
47053;SDS011;32811;52.382;5.270;2023-05-19T04:51:33;9.15;;;3.97;;
47053;SDS011;32811;52.382;5.270;2023-05-19T04:57:09;11.23;;;4.10;;
47053;SDS011;32811;52.382;5.270;2023-05-19T05:00:17;12.87;;;4.43;;
47053;SDS011;32811;52.382;5.270;2023-05-19T05:03:16;12.90;;;4.72;;
47053;SDS011;32811;52.382;5.270;2023-05-19T05:06:23;13.88;;;4.55;;
47053;SDS011;32811;52.382;5.270;2023-05-19T05:13:21;13.48;;;5.35;;
47053;SDS011;32811;52.382;5.270;2023-05-19T05:16:19;9.70;;;4.90;;
47053;SDS011;32811;52.382;5.270;2023-05-19T05:18:48;12.57;;;4.70;;
47053;SDS011;32811;52.382;5.270;2023-05-19T05:21:23;16.55;;;5.80;;
47053;SDS011;32811;52.382;5.270;2023-05-19T05:23:50;8.45;;;4.78;;
47053;SDS011;32811;52.382;5.270;2023-05-19T05:26:20;8.98;;;4.28;;
47053;SDS011;32811;52.382;5.270;2023-05-19T05:28:54;9.73;;;4.50;;
47053;SDS011;32811;52.382;5.270;2023-05-19T05:31:21;10.15;;;3.92;;
47053;SDS011;32811;52.382;5.270;2023-05-19T05:33:55;14.23;;;5.90;;
47053;SDS011;32811;52.382;5.270;2023-05-19T05:36:22;12.38;;;4.10;;
47053;SDS011;32811;52.382;5.270;2023-05-19T05:38:56;12.70;;;4.00;;
47053;SDS011;32811;52.382;5.270;2023-05-19T05:41:27;6.68;;;4.28;;
47053;SDS011;32811;52.382;5.270;2023-05-19T05:44:06;9.63;;;3.17;;
47053;SDS011;32811;52.382;5.270;2023-05-19T05:46:32;11.50;;;3.80;;
47053;SDS011;32811;52.382;5.270;2023-05-19T05:49:01;7.60;;;3.90;;
47053;SDS011;32811;52.382;5.270;2023-05-19T05:51:31;9.40;;;3.97;;
47053;SDS011;32811;52.382;5.270;2023-05-19T05:54:01;9.93;;;3.85;;
47053;SDS011;32811;52.382;5.270;2023-05-19T05:56:33;9.82;;;4.40;;
47053;SDS011;32811;52.382;5.270;2023-05-19T05:59:03;9.10;;;3.78;;
47053;SDS011;32811;52.382;5.270;2023-05-19T06:01:31;7.28;;;4.32;;
47053;SDS011;32811;52.382;5.270;2023-05-19T06:04:01;9.25;;;3.83;;
47053;SDS011;32811;52.382;5.270;2023-05-19T06:06:30;7.60;;;3.85;;
47053;SDS011;32811;52.382;5.270;2023-05-19T06:09:04;11.82;;;3.97;;
47053;SDS011;32811;52.382;5.270;2023-05-19T06:11:31;9.73;;;3.10;;
47053;SDS011;32811;52.382;5.270;2023-05-19T06:14:01;12.20;;;3.30;;
47053;SDS011;32811;52.382;5.270;2023-05-19T06:16:33;9.40;;;3.33;;
47053;SDS011;32811;52.382;5.270;2023-05-19T06:19:07;8.90;;;3.25;;
47053;SDS011;32811;52.382;5.270;2023-05-19T06:21:40;7.00;;;3.92;;
47053;SDS011;32811;52.382;5.270;2023-05-19T06:24:08;13.05;;;3.75;;
47053;SDS011;32811;52.382;5.270;2023-05-19T06:26:36;7.65;;;3.05;;
47053;SDS011;32811;52.382;5.270;2023-05-19T06:29:04;8.90;;;3.33;;
47053;SDS011;32811;52.382;5.270;2023-05-19T06:31:40;10.20;;;3.63;;
47053;SDS011;32811;52.382;5.270;2023-05-19T06:34:18;13.43;;;3.38;;
47053;SDS011;32811;52.382;5.270;2023-05-19T06:37:50;7.57;;;3.20;;
47053;SDS011;32811;52.382;5.270;2023-05-19T06:41:15;11.05;;;3.92;;
47053;SDS011;32811;52.382;5.270;2023-05-19T06:44:25;11.95;;;3.25;;
47053;SDS011;32811;52.382;5.270;2023-05-19T06:47:54;11.48;;;3.50;;
47053;SDS011;32811;52.382;5.270;2023-05-19T06:51:30;6.43;;;3.00;;
47053;SDS011;32811;52.382;5.270;2023-05-19T06:54:17;13.35;;;4.07;;
47053;SDS011;32811;52.382;5.270;2023-05-19T07:01:23;6.90;;;2.58;;
47053;SDS011;32811;52.382;5.270;2023-05-19T07:04:11;6.07;;;2.97;;
47053;SDS011;32811;52.382;5.270;2023-05-19T07:06:52;8.52;;;3.58;;
47053;SDS011;32811;52.382;5.270;2023-05-19T07:09:20;4.75;;;2.92;;
47053;SDS011;32811;52.382;5.270;2023-05-19T07:11:52;9.20;;;3.28;;
47053;SDS011;32811;52.382;5.270;2023-05-19T07:14:21;7.28;;;2.88;;
47053;SDS011;32811;52.382;5.270;2023-05-19T07:16:54;10.15;;;2.55;;
47053;SDS011;32811;52.382;5.270;2023-05-19T07:19:23;8.18;;;2.75;;
47053;SDS011;32811;52.382;5.270;2023-05-19T07:21:50;10.77;;;2.58;;
47053;SDS011;32811;52.382;5.270;2023-05-19T07:24:17;9.80;;;2.75;;
47053;SDS011;32811;52.382;5.270;2023-05-19T07:26:48;12.38;;;3.42;;
47053;SDS011;32811;52.382;5.270;2023-05-19T07:29:15;4.60;;;2.28;;
47053;SDS011;32811;52.382;5.270;2023-05-19T07:31:44;8.05;;;2.90;;
47053;SDS011;32811;52.382;5.270;2023-05-19T07:34:19;7.40;;;2.88;;
47053;SDS011;32811;52.382;5.270;2023-05-19T07:36:53;8.43;;;2.35;;
47053;SDS011;32811;52.382;5.270;2023-05-19T07:39:24;11.40;;;2.50;;
47053;SDS011;32811;52.382;5.270;2023-05-19T07:45:16;8.50;;;2.60;;
47053;SDS011;32811;52.382;5.270;2023-05-19T07:48:14;7.20;;;2.40;;
47053;SDS011;32811;52.382;5.270;2023-05-19T07:51:09;8.50;;;2.42;;
47053;SDS011;32811;52.382;5.270;2023-05-19T07:53:39;7.72;;;2.10;;
47053;SDS011;32811;52.382;5.270;2023-05-19T07:56:12;6.97;;;2.85;;
47053;SDS011;32811;52.382;5.270;2023-05-19T07:58:44;10.80;;;2.72;;
47053;SDS011;32811;52.382;5.270;2023-05-19T08:01:22;9.05;;;2.33;;
47053;SDS011;32811;52.382;5.270;2023-05-19T08:04:17;9.75;;;2.85;;
47053;SDS011;32811;52.382;5.270;2023-05-19T08:06:51;11.13;;;2.97;;
47053;SDS011;32811;52.382;5.270;2023-05-19T08:09:21;6.45;;;2.08;;
47053;SDS011;32811;52.382;5.270;2023-05-19T08:11:55;5.55;;;1.90;;
47053;SDS011;32811;52.382;5.270;2023-05-19T08:14:26;5.68;;;2.15;;
47053;SDS011;32811;52.382;5.270;2023-05-19T08:16:53;9.68;;;2.53;;
47053;SDS011;32811;52.382;5.270;2023-05-19T08:19:20;7.07;;;2.50;;
47053;SDS011;32811;52.382;5.270;2023-05-19T08:21:54;9.35;;;2.33;;
47053;SDS011;32811;52.382;5.270;2023-05-19T08:24:48;6.63;;;2.95;;
47053;SDS011;32811;52.382;5.270;2023-05-19T08:27:40;7.90;;;2.22;;
47053;SDS011;32811;52.382;5.270;2023-05-19T08:30:07;8.77;;;1.95;;
47053;SDS011;32811;52.382;5.270;2023-05-19T08:32:47;8.50;;;2.80;;
47053;SDS011;32811;52.382;5.270;2023-05-19T08:35:14;4.60;;;2.08;;
47053;SDS011;32811;52.382;5.270;2023-05-19T08:37:51;5.28;;;2.17;;
47053;SDS011;32811;52.382;5.270;2023-05-19T08:40:32;6.60;;;2.65;;
47053;SDS011;32811;52.382;5.270;2023-05-19T08:43:02;4.97;;;2.15;;
47053;SDS011;32811;52.382;5.270;2023-05-19T08:45:34;8.07;;;2.10;;
47053;SDS011;32811;52.382;5.270;2023-05-19T08:48:03;14.98;;;2.92;;
47053;SDS011;32811;52.382;5.270;2023-05-19T08:50:32;4.35;;;2.20;;
47053;SDS011;32811;52.382;5.270;2023-05-19T08:53:11;8.27;;;1.85;;
47053;SDS011;32811;52.382;5.270;2023-05-19T08:59:01;9.88;;;1.70;;
47053;SDS011;32811;52.382;5.270;2023-05-19T09:01:30;7.95;;;2.20;;
47053;SDS011;32811;52.382;5.270;2023-05-19T09:03:58;4.00;;;1.83;;
47053;SDS011;32811;52.382;5.270;2023-05-19T09:06:26;5.10;;;1.42;;
47053;SDS011;32811;52.382;5.270;2023-05-19T09:08:57;6.38;;;1.90;;
47053;SDS011;32811;52.382;5.270;2023-05-19T09:11:27;4.05;;;1.40;;
47053;SDS011;32811;52.382;5.270;2023-05-19T09:13:54;8.15;;;1.70;;
47053;SDS011;32811;52.382;5.270;2023-05-19T09:16:24;6.85;;;1.30;;
47053;SDS011;32811;52.382;5.270;2023-05-19T09:18:56;6.60;;;1.40;;
47053;SDS011;32811;52.382;5.270;2023-05-19T09:21:27;7.43;;;2.58;;
47053;SDS011;32811;52.382;5.270;2023-05-19T09:24:04;5.65;;;1.10;;
47053;SDS011;32811;52.382;5.270;2023-05-19T09:26:39;4.65;;;1.50;;
47053;SDS011;32811;52.382;5.270;2023-05-19T09:29:19;7.55;;;1.33;;
47053;SDS011;32811;52.382;5.270;2023-05-19T09:31:52;9.45;;;1.33;;
47053;SDS011;32811;52.382;5.270;2023-05-19T09:34:26;9.52;;;1.98;;
47053;SDS011;32811;52.382;5.270;2023-05-19T09:36:54;7.57;;;1.42;;
47053;SDS011;32811;52.382;5.270;2023-05-19T09:39:21;6.53;;;1.80;;
47053;SDS011;32811;52.382;5.270;2023-05-19T09:41:52;9.60;;;2.83;;
47053;SDS011;32811;52.382;5.270;2023-05-19T09:44:25;7.95;;;2.08;;
47053;SDS011;32811;52.382;5.270;2023-05-19T09:46:55;8.43;;;2.13;;
47053;SDS011;32811;52.382;5.270;2023-05-19T09:49:22;4.68;;;1.08;;
47053;SDS011;32811;52.382;5.270;2023-05-19T09:51:54;6.97;;;1.90;;
47053;SDS011;32811;52.382;5.270;2023-05-19T09:54:24;5.35;;;1.40;;
47053;SDS011;32811;52.382;5.270;2023-05-19T09:57:00;4.70;;;1.50;;
47053;SDS011;32811;52.382;5.270;2023-05-19T09:59:32;8.30;;;1.15;;
47053;SDS011;32811;52.382;5.270;2023-05-19T10:02:03;7.88;;;1.52;;
47053;SDS011;32811;52.382;5.270;2023-05-19T10:04:31;6.38;;;0.93;;
47053;SDS011;32811;52.382;5.270;2023-05-19T10:07:01;4.13;;;1.25;;
47053;SDS011;32811;52.382;5.270;2023-05-19T10:09:32;4.15;;;1.02;;
47053;SDS011;32811;52.382;5.270;2023-05-19T10:12:07;7.03;;;1.02;;
47053;SDS011;32811;52.382;5.270;2023-05-19T10:17:09;7.75;;;1.50;;
47053;SDS011;32811;52.382;5.270;2023-05-19T10:19:40;5.18;;;1.30;;
47053;SDS011;32811;52.382;5.270;2023-05-19T10:22:12;4.82;;;1.25;;
47053;SDS011;32811;52.382;5.270;2023-05-19T10:24:42;4.57;;;1.02;;
47053;SDS011;32811;52.382;5.270;2023-05-19T10:27:18;7.03;;;1.15;;
47053;SDS011;32811;52.382;5.270;2023-05-19T10:29:47;7.30;;;1.20;;
47053;SDS011;32811;52.382;5.270;2023-05-19T10:32:23;3.80;;;1.50;;
47053;SDS011;32811;52.382;5.270;2023-05-19T10:35:15;4.53;;;1.13;;
47053;SDS011;32811;52.382;5.270;2023-05-19T10:41:12;2.38;;;0.90;;
47053;SDS011;32811;52.382;5.270;2023-05-19T10:43:57;8.45;;;1.77;;
47053;SDS011;32811;52.382;5.270;2023-05-19T10:46:47;8.15;;;1.13;;
47053;SDS011;32811;52.382;5.270;2023-05-19T10:49:20;4.13;;;1.08;;
47053;SDS011;32811;52.382;5.270;2023-05-19T10:51:48;11.02;;;1.20;;
47053;SDS011;32811;52.382;5.270;2023-05-19T10:54:37;3.95;;;1.15;;
47053;SDS011;32811;52.382;5.270;2023-05-19T10:57:26;3.88;;;1.05;;
47053;SDS011;32811;52.382;5.270;2023-05-19T11:00:04;6.05;;;1.95;;
47053;SDS011;32811;52.382;5.270;2023-05-19T11:03:15;11.38;;;1.58;;
47053;SDS011;32811;52.382;5.270;2023-05-19T11:06:32;3.72;;;0.90;;
47053;SDS011;32811;52.382;5.270;2023-05-19T11:09:13;5.97;;;1.20;;
47053;SDS011;32811;52.382;5.270;2023-05-19T11:12:04;6.47;;;1.83;;
47053;SDS011;32811;52.382;5.270;2023-05-19T11:17:11;5.72;;;1.15;;
47053;SDS011;32811;52.382;5.270;2023-05-19T11:19:50;7.25;;;1.80;;
47053;SDS011;32811;52.382;5.270;2023-05-19T11:22:30;6.25;;;1.73;;
47053;SDS011;32811;52.382;5.270;2023-05-19T11:25:46;5.70;;;1.52;;
47053;SDS011;32811;52.382;5.270;2023-05-19T11:28:33;4.55;;;1.55;;
47053;SDS011;32811;52.382;5.270;2023-05-19T11:31:31;5.43;;;1.10;;
47053;SDS011;32811;52.382;5.270;2023-05-19T11:34:04;5.32;;;1.30;;
47053;SDS011;32811;52.382;5.270;2023-05-19T11:36:32;5.68;;;1.60;;
47053;SDS011;32811;52.382;5.270;2023-05-19T11:39:16;5.13;;;1.00;;
47053;SDS011;32811;52.382;5.270;2023-05-19T11:41:45;4.03;;;1.08;;
47053;SDS011;32811;52.382;5.270;2023-05-19T11:44:29;3.72;;;1.15;;
47053;SDS011;32811;52.382;5.270;2023-05-19T11:47:25;7.13;;;1.58;;
47053;SDS011;32811;52.382;5.270;2023-05-19T11:50:19;3.20;;;1.02;;
47053;SDS011;32811;52.382;5.270;2023-05-19T11:52:46;6.85;;;1.60;;
47053;SDS011;32811;52.382;5.270;2023-05-19T11:55:44;8.30;;;1.58;;
47053;SDS011;32811;52.382;5.270;2023-05-19T11:58:32;5.47;;;1.23;;
47053;SDS011;32811;52.382;5.270;2023-05-19T12:01:53;4.25;;;1.30;;
47053;SDS011;32811;52.382;5.270;2023-05-19T12:04:21;5.93;;;1.23;;
47053;SDS011;32811;52.382;5.270;2023-05-19T12:07:37;7.32;;;1.48;;
47053;SDS011;32811;52.382;5.270;2023-05-19T12:10:27;5.63;;;1.20;;
47053;SDS011;32811;52.382;5.270;2023-05-19T12:13:00;5.47;;;1.65;;
47053;SDS011;32811;52.382;5.270;2023-05-19T12:15:41;4.13;;;1.15;;
47053;SDS011;32811;52.382;5.270;2023-05-19T12:18:28;3.70;;;1.10;;
47053;SDS011;32811;52.382;5.270;2023-05-19T12:21:06;7.70;;;1.20;;
47053;SDS011;32811;52.382;5.270;2023-05-19T12:23:33;3.17;;;1.17;;
47053;SDS011;32811;52.382;5.270;2023-05-19T12:26:02;8.27;;;2.03;;
47053;SDS011;32811;52.382;5.270;2023-05-19T12:28:29;4.57;;;1.52;;
47053;SDS011;32811;52.382;5.270;2023-05-19T12:30:57;3.80;;;2.33;;
47053;SDS011;32811;52.382;5.270;2023-05-19T12:33:24;3.50;;;1.20;;
47053;SDS011;32811;52.382;5.270;2023-05-19T12:35:50;6.28;;;1.27;;
47053;SDS011;32811;52.382;5.270;2023-05-19T12:38:19;7.07;;;1.10;;
47053;SDS011;32811;52.382;5.270;2023-05-19T12:40:46;5.93;;;1.15;;
47053;SDS011;32811;52.382;5.270;2023-05-19T12:43:19;9.90;;;1.98;;
47053;SDS011;32811;52.382;5.270;2023-05-19T12:45:47;9.45;;;1.80;;
47053;SDS011;32811;52.382;5.270;2023-05-19T12:48:15;9.88;;;1.80;;
47053;SDS011;32811;52.382;5.270;2023-05-19T12:50:43;4.85;;;1.08;;
47053;SDS011;32811;52.382;5.270;2023-05-19T12:53:10;3.40;;;0.90;;
47053;SDS011;32811;52.382;5.270;2023-05-19T12:55:43;7.68;;;1.45;;
47053;SDS011;32811;52.382;5.270;2023-05-19T12:58:14;4.07;;;1.40;;
47053;SDS011;32811;52.382;5.270;2023-05-19T13:00:42;7.38;;;1.20;;
47053;SDS011;32811;52.382;5.270;2023-05-19T13:03:38;6.65;;;1.42;;
47053;SDS011;32811;52.382;5.270;2023-05-19T13:06:15;5.00;;;1.70;;
47053;SDS011;32811;52.382;5.270;2023-05-19T13:09:10;6.43;;;1.38;;
47053;SDS011;32811;52.382;5.270;2023-05-19T13:12:19;3.78;;;1.25;;
47053;SDS011;32811;52.382;5.270;2023-05-19T13:14:59;3.60;;;1.20;;
47053;SDS011;32811;52.382;5.270;2023-05-19T13:17:28;6.93;;;1.35;;
47053;SDS011;32811;52.382;5.270;2023-05-19T13:19:58;2.65;;;1.30;;
47053;SDS011;32811;52.382;5.270;2023-05-19T13:22:48;8.27;;;1.40;;
47053;SDS011;32811;52.382;5.270;2023-05-19T13:25:19;5.30;;;1.20;;
47053;SDS011;32811;52.382;5.270;2023-05-19T13:28:21;4.55;;;1.30;;
47053;SDS011;32811;52.382;5.270;2023-05-19T13:30:53;5.78;;;1.65;;
47053;SDS011;32811;52.382;5.270;2023-05-19T13:33:24;5.68;;;1.58;;
47053;SDS011;32811;52.382;5.270;2023-05-19T13:35:51;4.90;;;1.40;;
47053;SDS011;32811;52.382;5.270;2023-05-19T13:38:25;6.13;;;1.33;;
47053;SDS011;32811;52.382;5.270;2023-05-19T13:41:00;6.13;;;1.50;;
47053;SDS011;32811;52.382;5.270;2023-05-19T13:43:27;4.07;;;1.48;;
47053;SDS011;32811;52.382;5.270;2023-05-19T13:45:56;3.47;;;1.40;;
47053;SDS011;32811;52.382;5.270;2023-05-19T13:48:27;5.20;;;1.23;;
47053;SDS011;32811;52.382;5.270;2023-05-19T13:50:57;4.90;;;1.40;;
47053;SDS011;32811;52.382;5.270;2023-05-19T13:53:25;9.68;;;1.80;;
47053;SDS011;32811;52.382;5.270;2023-05-19T13:56:19;5.38;;;1.50;;
47053;SDS011;32811;52.382;5.270;2023-05-19T13:59:13;6.13;;;1.40;;
47053;SDS011;32811;52.382;5.270;2023-05-19T14:02:28;5.43;;;1.30;;
47053;SDS011;32811;52.382;5.270;2023-05-19T14:04:56;3.33;;;1.02;;
47053;SDS011;32811;52.382;5.270;2023-05-19T14:07:32;1.83;;;0.98;;
47053;SDS011;32811;52.382;5.270;2023-05-19T14:10:16;1.85;;;1.00;;
47053;SDS011;32811;52.382;5.270;2023-05-19T14:12:52;5.47;;;2.35;;
47053;SDS011;32811;52.382;5.270;2023-05-19T14:15:31;2.42;;;0.93;;
47053;SDS011;32811;52.382;5.270;2023-05-19T14:18:24;3.13;;;1.00;;
47053;SDS011;32811;52.382;5.270;2023-05-19T14:21:25;6.65;;;1.80;;
47053;SDS011;32811;52.382;5.270;2023-05-19T14:24:23;6.18;;;0.98;;
47053;SDS011;32811;52.382;5.270;2023-05-19T14:27:06;3.40;;;0.90;;
47053;SDS011;32811;52.382;5.270;2023-05-19T14:29:34;7.10;;;2.05;;
47053;SDS011;32811;52.382;5.270;2023-05-19T14:32:16;4.70;;;1.10;;
47053;SDS011;32811;52.382;5.270;2023-05-19T14:35:33;3.80;;;1.00;;
47053;SDS011;32811;52.382;5.270;2023-05-19T14:41:47;4.50;;;1.50;;
47053;SDS011;32811;52.382;5.270;2023-05-19T14:44:56;4.40;;;1.45;;
47053;SDS011;32811;52.382;5.270;2023-05-19T14:47:32;5.18;;;1.08;;
47053;SDS011;32811;52.382;5.270;2023-05-19T14:50:04;4.10;;;1.35;;
47053;SDS011;32811;52.382;5.270;2023-05-19T14:52:33;5.40;;;1.27;;
47053;SDS011;32811;52.382;5.270;2023-05-19T14:55:14;2.63;;;1.30;;
47053;SDS011;32811;52.382;5.270;2023-05-19T14:57:53;5.13;;;2.47;;
47053;SDS011;32811;52.382;5.270;2023-05-19T15:00:55;4.15;;;1.55;;
47053;SDS011;32811;52.382;5.270;2023-05-19T15:03:26;9.98;;;1.75;;
47053;SDS011;32811;52.382;5.270;2023-05-19T15:05:56;6.25;;;1.88;;
47053;SDS011;32811;52.382;5.270;2023-05-19T15:08:24;9.82;;;3.47;;
47053;SDS011;32811;52.382;5.270;2023-05-19T15:10:54;3.88;;;1.25;;
47053;SDS011;32811;52.382;5.270;2023-05-19T15:13:24;5.43;;;1.73;;
47053;SDS011;32811;52.382;5.270;2023-05-19T15:15:54;4.93;;;1.75;;
47053;SDS011;32811;52.382;5.270;2023-05-19T15:18:41;5.97;;;1.63;;
47053;SDS011;32811;52.382;5.270;2023-05-19T15:21:10;9.13;;;2.17;;
47053;SDS011;32811;52.382;5.270;2023-05-19T15:23:38;3.58;;;1.77;;
47053;SDS011;32811;52.382;5.270;2023-05-19T15:26:07;4.03;;;1.55;;
47053;SDS011;32811;52.382;5.270;2023-05-19T15:28:34;6.03;;;1.92;;
47053;SDS011;32811;52.382;5.270;2023-05-19T15:31:09;3.05;;;1.15;;
47053;SDS011;32811;52.382;5.270;2023-05-19T15:33:50;5.32;;;2.17;;
47053;SDS011;32811;52.382;5.270;2023-05-19T15:36:26;4.65;;;1.42;;
47053;SDS011;32811;52.382;5.270;2023-05-19T15:38:54;2.80;;;1.00;;
47053;SDS011;32811;52.382;5.270;2023-05-19T15:41:44;7.30;;;2.17;;
47053;SDS011;32811;52.382;5.270;2023-05-19T15:44:13;9.45;;;2.47;;
47053;SDS011;32811;52.382;5.270;2023-05-19T15:46:53;4.88;;;1.58;;
47053;SDS011;32811;52.382;5.270;2023-05-19T15:49:23;5.45;;;1.52;;
47053;SDS011;32811;52.382;5.270;2023-05-19T15:51:53;5.00;;;1.50;;
47053;SDS011;32811;52.382;5.270;2023-05-19T15:54:20;4.18;;;1.55;;
47053;SDS011;32811;52.382;5.270;2023-05-19T15:56:47;3.53;;;1.13;;
47053;SDS011;32811;52.382;5.270;2023-05-19T15:59:13;4.03;;;1.27;;
47053;SDS011;32811;52.382;5.270;2023-05-19T16:01:40;5.13;;;2.38;;
47053;SDS011;32811;52.382;5.270;2023-05-19T16:04:06;5.28;;;1.88;;
47053;SDS011;32811;52.382;5.270;2023-05-19T16:06:33;7.10;;;1.70;;
47053;SDS011;32811;52.382;5.270;2023-05-19T16:09:00;4.85;;;1.48;;
47053;SDS011;32811;52.382;5.270;2023-05-19T16:11:27;6.88;;;1.67;;
47053;SDS011;32811;52.382;5.270;2023-05-19T16:13:53;5.32;;;1.17;;
47053;SDS011;32811;52.382;5.270;2023-05-19T16:16:20;4.35;;;1.35;;
47053;SDS011;32811;52.382;5.270;2023-05-19T16:18:47;5.05;;;1.40;;
47053;SDS011;32811;52.382;5.270;2023-05-19T16:21:13;5.20;;;1.50;;
47053;SDS011;32811;52.382;5.270;2023-05-19T16:23:40;5.13;;;1.55;;
47053;SDS011;32811;52.382;5.270;2023-05-19T16:26:07;7.25;;;2.38;;
47053;SDS011;32811;52.382;5.270;2023-05-19T16:28:34;6.75;;;1.60;;
47053;SDS011;32811;52.382;5.270;2023-05-19T16:31:00;3.97;;;1.58;;
47053;SDS011;32811;52.382;5.270;2023-05-19T16:33:27;5.47;;;1.35;;
47053;SDS011;32811;52.382;5.270;2023-05-19T16:35:56;3.97;;;1.48;;
47053;SDS011;32811;52.382;5.270;2023-05-19T16:38:23;4.38;;;1.40;;
47053;SDS011;32811;52.382;5.270;2023-05-19T16:40:49;4.72;;;1.55;;
47053;SDS011;32811;52.382;5.270;2023-05-19T16:43:16;5.63;;;1.73;;
47053;SDS011;32811;52.382;5.270;2023-05-19T16:45:43;5.15;;;1.63;;
47053;SDS011;32811;52.382;5.270;2023-05-19T16:48:09;6.85;;;1.70;;
47053;SDS011;32811;52.382;5.270;2023-05-19T16:50:36;9.65;;;1.63;;
47053;SDS011;32811;52.382;5.270;2023-05-19T16:53:04;5.55;;;2.63;;
47053;SDS011;32811;52.382;5.270;2023-05-19T16:55:31;4.90;;;1.67;;
47053;SDS011;32811;52.382;5.270;2023-05-19T16:57:58;5.32;;;1.83;;
47053;SDS011;32811;52.382;5.270;2023-05-19T17:00:24;8.07;;;2.10;;
47053;SDS011;32811;52.382;5.270;2023-05-19T17:02:52;16.88;;;4.05;;
47053;SDS011;32811;52.382;5.270;2023-05-19T17:05:19;5.00;;;1.65;;
47053;SDS011;32811;52.382;5.270;2023-05-19T17:07:45;8.52;;;2.85;;
47053;SDS011;32811;52.382;5.270;2023-05-19T17:10:12;6.65;;;1.85;;
47053;SDS011;32811;52.382;5.270;2023-05-19T17:12:39;10.25;;;1.95;;
47053;SDS011;32811;52.382;5.270;2023-05-19T17:15:06;7.20;;;2.83;;
47053;SDS011;32811;52.382;5.270;2023-05-19T17:17:33;5.85;;;2.65;;
47053;SDS011;32811;52.382;5.270;2023-05-19T17:19:59;6.15;;;2.13;;
47053;SDS011;32811;52.382;5.270;2023-05-19T17:22:26;3.20;;;1.70;;
47053;SDS011;32811;52.382;5.270;2023-05-19T17:24:55;18.27;;;3.28;;
47053;SDS011;32811;52.382;5.270;2023-05-19T17:27:22;6.95;;;2.30;;
47053;SDS011;32811;52.382;5.270;2023-05-19T17:29:49;5.78;;;2.63;;
47053;SDS011;32811;52.382;5.270;2023-05-19T17:32:16;8.23;;;2.20;;